Time;durP1;ratioP1;P1;durP2;ratioP2;P2;SDS_P1;SDS_P2;PMS_P1;PMS_P2;Temp;Humidity;BMP_temperature;BMP_pressure;BME280_temperature;BME280_humidity;BME280_pressure;Samples;Min_cycle;Max_cycle;Signal;HPM_P1;HPM_P2
2020/12/12 00:00:15;;;;;;;39.63;23.05;;;5.30;99.90;;;;;;5092848;28;20036;-70
2020/12/12 00:02:41;;;;;;;40.38;22.90;;;5.30;99.90;;;;;;5091091;28;20027;-71
2020/12/12 00:05:07;;;;;;;43.00;22.15;;;5.20;99.90;;;;;;5091816;28;20124;-69
2020/12/12 00:07:33;;;;;;;42.50;19.25;;;5.20;99.90;;;;;;5092843;28;20035;-69
2020/12/12 00:09:59;;;;;;;39.85;19.00;;;5.20;99.90;;;;;;5090817;28;20052;-69
2020/12/12 00:12:25;;;;;;;45.10;21.77;;;5.20;99.90;;;;;;5091523;28;20110;-69
2020/12/12 00:14:50;;;;;;;50.35;25.00;;;5.20;99.90;;;;;;5092354;28;20035;-68
2020/12/12 00:17:19;;;;;;;49.08;25.20;;;5.20;99.90;;;;;;5091550;28;20027;-70
2020/12/12 00:19:47;;;;;;;50.22;26.38;;;5.20;99.90;;;;;;5091553;28;20019;-70
2020/12/12 00:22:13;;;;;;;56.90;26.35;;;5.20;99.90;;;;;;5085434;28;21503;-70
2020/12/12 00:24:39;;;;;;;48.47;26.25;;;5.20;99.90;;;;;;5071470;28;20024;-73
2020/12/12 00:27:05;;;;;;;52.67;26.27;;;5.30;99.90;;;;;;5072312;28;20029;-70
2020/12/12 00:29:31;;;;;;;51.60;26.02;;;5.30;99.90;;;;;;5071437;28;20031;-68
2020/12/12 00:31:58;;;;;;;50.10;25.58;;;5.30;99.90;;;;;;5070600;28;20386;-68
2020/12/12 00:34:25;;;;;;;44.97;23.75;;;5.30;99.90;;;;;;5072829;28;20031;-69
2020/12/12 00:36:51;;;;;;;49.58;24.52;;;5.30;99.90;;;;;;5054612;28;20466;-69
2020/12/12 00:39:19;;;;;;;43.35;24.40;;;5.20;99.90;;;;;;5073972;28;20023;-68
2020/12/12 00:41:45;;;;;;;43.00;22.17;;;5.20;99.90;;;;;;5053608;28;20112;-68
2020/12/12 00:44:12;;;;;;;50.85;25.10;;;5.10;99.90;;;;;;5072196;28;20028;-68
2020/12/12 00:46:38;;;;;;;57.55;24.95;;;5.10;99.90;;;;;;5080081;28;20028;-68
2020/12/12 00:49:05;;;;;;;45.85;23.55;;;5.10;99.90;;;;;;5092107;28;20431;-69
2020/12/12 00:51:32;;;;;;;47.65;24.13;;;5.10;99.90;;;;;;5079990;28;20069;-71
2020/12/12 00:53:58;;;;;;;50.20;26.65;;;5.00;99.90;;;;;;5095473;28;20050;-71
2020/12/12 00:56:24;;;;;;;48.67;23.60;;;5.10;99.90;;;;;;5095437;28;20024;-72
2020/12/12 00:58:50;;;;;;;51.55;22.27;;;5.00;99.90;;;;;;5095561;28;20020;-71
2020/12/12 01:01:17;;;;;;;38.78;20.27;;;5.10;99.90;;;;;;5095031;28;20020;-71
2020/12/12 01:03:43;;;;;;;39.97;19.23;;;5.10;99.90;;;;;;5095363;28;20415;-71
2020/12/12 01:06:10;;;;;;;33.75;18.27;;;5.10;99.90;;;;;;5095162;28;20032;-69
2020/12/12 01:08:37;;;;;;;31.17;18.42;;;5.20;99.90;;;;;;5094766;28;20028;-70
2020/12/12 01:11:04;;;;;;;37.80;18.27;;;5.10;99.90;;;;;;5095197;28;20056;-70
2020/12/12 01:13:30;;;;;;;37.45;19.48;;;5.10;99.90;;;;;;5095257;28;20032;-69
2020/12/12 01:15:55;;;;;;;43.00;20.65;;;5.10;99.90;;;;;;5092774;28;20043;-69
2020/12/12 01:18:21;;;;;;;46.50;20.92;;;4.90;99.90;;;;;;5095167;28;20517;-71
2020/12/12 01:20:47;;;;;;;43.00;21.55;;;4.80;99.90;;;;;;5095464;28;20028;-71
2020/12/12 01:23:13;;;;;;;41.58;20.60;;;4.70;99.90;;;;;;5094650;28;20028;-71
2020/12/12 01:25:39;;;;;;;41.90;23.15;;;4.70;99.90;;;;;;5076857;28;20165;-70
2020/12/12 01:28:05;;;;;;;54.22;25.73;;;4.50;99.90;;;;;;5094899;28;20044;-71
2020/12/12 01:30:32;;;;;;;39.90;21.05;;;4.50;99.90;;;;;;5094658;28;20028;-69
2020/12/12 01:32:57;;;;;;;45.55;21.80;;;4.50;99.90;;;;;;5094916;28;20103;-75
2020/12/12 01:35:23;;;;;;;48.42;23.67;;;4.50;99.90;;;;;;5095043;28;20139;-70
2020/12/12 01:37:49;;;;;;;44.60;23.67;;;4.40;99.90;;;;;;5094306;28;20027;-71
2020/12/12 01:40:15;;;;;;;49.97;23.05;;;4.40;99.90;;;;;;5095216;28;20031;-70
2020/12/12 01:42:41;;;;;;;42.45;22.63;;;4.40;99.90;;;;;;5094628;28;20382;-71
2020/12/12 01:45:08;;;;;;;43.72;21.30;;;4.30;99.90;;;;;;5094187;28;20107;-70
2020/12/12 01:47:35;;;;;;;52.00;23.02;;;4.30;99.90;;;;;;5094994;28;20032;-70
2020/12/12 01:50:01;;;;;;;41.55;20.00;;;4.40;99.90;;;;;;5076585;28;20085;-70
2020/12/12 01:52:27;;;;;;;40.55;19.23;;;4.50;99.90;;;;;;5094214;28;20024;-71
2020/12/12 01:54:53;;;;;;;33.85;18.40;;;4.50;99.90;;;;;;5094080;28;20398;-71
2020/12/12 01:57:22;;;;;;;37.90;20.42;;;4.60;99.90;;;;;;5094642;28;20050;-70
2020/12/12 01:59:52;;;;;;;45.10;22.27;;;4.60;99.90;;;;;;5075909;28;20315;-70
2020/12/12 02:02:19;;;;;;;38.90;20.33;;;4.70;99.90;;;;;;5074368;28;20026;-73
2020/12/12 02:04:49;;;;;;;39.60;19.15;;;4.70;99.90;;;;;;5094343;28;20020;-71
2020/12/12 02:07:16;;;;;;;36.17;20.52;;;4.70;99.90;;;;;;5093746;28;20048;-69
2020/12/12 02:09:44;;;;;;;34.47;18.30;;;4.80;99.90;;;;;;5094045;28;20044;-70
2020/12/12 02:12:14;;;;;;;39.08;21.00;;;4.80;99.90;;;;;;5094409;28;20084;-71
2020/12/12 02:14:40;;;;;;;41.00;20.90;;;4.70;99.90;;;;;;5093332;28;20032;-71
2020/12/12 02:17:06;;;;;;;36.22;18.35;;;4.80;99.90;;;;;;5094171;28;20071;-68
2020/12/12 02:19:33;;;;;;;34.00;18.30;;;4.80;99.90;;;;;;5094435;28;20616;-69
2020/12/12 02:22:00;;;;;;;34.88;18.35;;;4.80;99.90;;;;;;5092889;28;20020;-69
2020/12/12 02:24:33;;;;;;;36.83;18.33;;;4.80;99.90;;;;;;5094198;28;20031;-70
2020/12/12 02:27:00;;;;;;;31.58;18.65;;;4.80;99.90;;;;;;5094097;28;20028;-69
2020/12/12 02:29:39;;;;;;;30.23;17.42;;;4.80;99.90;;;;;;5093271;28;20027;-68
2020/12/12 02:32:05;;;;;;;38.75;19.45;;;4.90;99.90;;;;;;5094162;28;20129;-69
2020/12/12 02:34:31;;;;;;;43.80;20.25;;;4.90;99.90;;;;;;5083093;28;20039;-70
2020/12/12 02:36:57;;;;;;;37.83;18.98;;;4.80;99.90;;;;;;5092917;28;20086;-70
2020/12/12 02:39:23;;;;;;;29.05;16.65;;;4.90;99.90;;;;;;5093500;28;20024;-69
2020/12/12 02:41:49;;;;;;;33.50;17.52;;;4.80;99.90;;;;;;5093161;28;20031;-69
2020/12/12 02:44:14;;;;;;;39.00;19.63;;;4.70;99.90;;;;;;5093035;28;20028;-70
2020/12/12 02:46:40;;;;;;;34.45;20.00;;;4.70;99.90;;;;;;5093437;28;20023;-70
2020/12/12 02:49:06;;;;;;;39.38;20.60;;;4.60;99.90;;;;;;5075087;28;20027;-70
2020/12/12 02:51:32;;;;;;;43.78;23.50;;;4.60;99.90;;;;;;5092798;28;20024;-69
2020/12/12 02:53:58;;;;;;;54.35;25.95;;;4.50;99.90;;;;;;5093472;28;20430;-70
2020/12/12 02:56:24;;;;;;;39.63;21.30;;;4.40;99.90;;;;;;5093505;28;20450;-71
2020/12/12 02:58:50;;;;;;;44.90;24.85;;;4.40;99.90;;;;;;5093888;28;20020;-70
2020/12/12 03:01:16;;;;;;;43.53;23.77;;;4.50;99.90;;;;;;5093918;28;20020;-72
2020/12/12 03:03:42;;;;;;;42.72;23.55;;;4.50;99.90;;;;;;5093605;28;20094;-71
2020/12/12 03:06:08;;;;;;;48.42;24.98;;;4.40;99.90;;;;;;5093571;28;20095;-75
2020/12/12 03:08:33;;;;;;;60.83;29.80;;;4.40;99.90;;;;;;5093616;28;20016;-70
2020/12/12 03:10:59;;;;;;;55.22;27.42;;;4.40;99.90;;;;;;5093247;28;20079;-70
2020/12/12 03:13:25;;;;;;;55.53;30.38;;;4.50;99.90;;;;;;5093662;28;20402;-71
2020/12/12 03:15:51;;;;;;;54.40;30.20;;;4.50;99.90;;;;;;5093727;28;20481;-70
2020/12/12 03:18:16;;;;;;;55.45;29.20;;;4.50;99.90;;;;;;5093284;28;20031;-69
2020/12/12 03:20:42;;;;;;;63.58;30.50;;;4.40;99.90;;;;;;5093763;28;20031;-71
2020/12/12 03:23:08;;;;;;;61.50;30.88;;;4.50;99.90;;;;;;5093793;28;20024;-70
2020/12/12 03:25:34;;;;;;;57.55;29.80;;;4.60;99.90;;;;;;5092967;28;20389;-72
2020/12/12 03:27:59;;;;;;;70.95;34.08;;;4.50;99.90;;;;;;5093659;28;20128;-72
2020/12/12 03:30:25;;;;;;;69.07;34.88;;;4.50;99.90;;;;;;5075489;28;20377;-72
2020/12/12 03:32:51;;;;;;;61.85;32.45;;;4.50;99.90;;;;;;5093029;28;20056;-70
2020/12/12 03:35:17;;;;;;;60.25;31.42;;;4.50;99.90;;;;;;5093276;28;20036;-70
2020/12/12 03:37:42;;;;;;;59.70;30.20;;;4.60;99.90;;;;;;5093098;28;20024;-70
2020/12/12 03:40:08;;;;;;;50.35;24.88;;;4.50;99.90;;;;;;5093280;28;20070;-71
2020/12/12 03:42:34;;;;;;;53.85;27.42;;;4.60;99.90;;;;;;5093609;28;20082;-71
2020/12/12 03:44:59;;;;;;;54.45;26.40;;;4.70;99.90;;;;;;5093153;28;20039;-70
2020/12/12 03:47:25;;;;;;;52.55;25.88;;;4.60;99.90;;;;;;5093369;28;20024;-70
2020/12/12 03:49:51;;;;;;;48.70;24.25;;;4.80;99.90;;;;;;5093382;28;20028;-69
2020/12/12 03:52:17;;;;;;;63.63;28.73;;;4.90;99.90;;;;;;5092806;28;20228;-70
2020/12/12 03:54:43;;;;;;;61.60;26.83;;;4.60;99.90;;;;;;5092859;28;20036;-72
2020/12/12 03:57:09;;;;;;;59.42;27.55;;;4.70;99.90;;;;;;5093129;28;20464;-69
2020/12/12 03:59:35;;;;;;;72.30;30.45;;;4.70;99.90;;;;;;5092437;28;20020;-70
2020/12/12 04:02:01;;;;;;;61.88;29.25;;;4.70;99.90;;;;;;5093207;28;20029;-71
2020/12/12 04:04:27;;;;;;;70.32;34.38;;;4.70;99.90;;;;;;5093021;28;20039;-71
2020/12/12 04:06:53;;;;;;;76.20;36.45;;;4.80;99.90;;;;;;5092689;28;20028;-71
2020/12/12 04:09:19;;;;;;;79.88;42.95;;;4.70;99.90;;;;;;5092983;28;20024;-71
2020/12/12 04:11:44;;;;;;;87.25;45.67;;;4.90;99.90;;;;;;5093149;28;20032;-70
2020/12/12 04:14:10;;;;;;;80.10;43.08;;;4.90;99.90;;;;;;5092445;28;20032;-71
2020/12/12 04:16:36;;;;;;;75.53;33.40;;;4.90;99.90;;;;;;5092883;28;20090;-72
2020/12/12 04:19:02;;;;;;;68.63;32.60;;;4.80;99.90;;;;;;5092640;28;20052;-69
2020/12/12 04:21:27;;;;;;;66.15;33.85;;;4.90;99.90;;;;;;5074443;28;20077;-71
2020/12/12 04:23:53;;;;;;;63.40;33.60;;;4.90;99.90;;;;;;5092559;28;20078;-71
2020/12/12 04:26:19;;;;;;;65.95;33.03;;;4.90;99.90;;;;;;5094449;28;20039;-70
2020/12/12 04:28:45;;;;;;;71.35;34.70;;;4.90;99.90;;;;;;5078402;28;20420;-71
2020/12/12 04:31:11;;;;;;;61.55;33.38;;;4.90;99.90;;;;;;5097112;28;20024;-70
2020/12/12 04:33:36;;;;;;;53.53;28.05;;;4.90;99.90;;;;;;5096669;28;20354;-70
2020/12/12 04:36:03;;;;;;;56.40;26.60;;;5.00;99.90;;;;;;5096494;28;20115;-70
2020/12/12 04:38:30;;;;;;;46.55;23.38;;;4.90;99.90;;;;;;5097085;28;20036;-71
2020/12/12 04:40:59;;;;;;;47.33;23.50;;;4.90;99.90;;;;;;5097065;28;20036;-71
2020/12/12 04:43:30;;;;;;;44.00;20.95;;;4.90;99.90;;;;;;5096908;28;20031;-70
2020/12/12 04:45:57;;;;;;;47.75;21.67;;;4.90;99.90;;;;;;5096926;28;20115;-69
2020/12/12 04:48:23;;;;;;;40.33;20.92;;;4.90;99.90;;;;;;5096527;28;20028;-70
2020/12/12 04:50:48;;;;;;;35.35;18.58;;;5.00;99.90;;;;;;5096559;28;20020;-70
2020/12/12 04:53:19;;;;;;;30.55;16.73;;;5.10;99.90;;;;;;5078356;28;20028;-69
2020/12/12 04:55:50;;;;;;;32.20;17.10;;;5.00;99.90;;;;;;5095746;28;20102;-69
2020/12/12 04:58:27;;;;;;;30.75;16.92;;;5.10;99.90;;;;;;5096520;28;20028;-69
2020/12/12 05:00:55;;;;;;;30.88;15.65;;;5.10;99.90;;;;;;5096259;28;20035;-71
2020/12/12 05:03:23;;;;;;;92.35;48.60;;;5.10;99.90;;;;;;5095920;28;20065;-70
2020/12/12 05:05:49;;;;;;;59.17;32.42;;;5.30;99.90;;;;;;5078525;28;20099;-69
2020/12/12 05:08:15;;;;;;;55.05;27.40;;;5.30;99.90;;;;;;5096353;28;20030;-69
2020/12/12 05:10:43;;;;;;;56.70;28.95;;;5.40;99.90;;;;;;5086944;28;20174;-69
2020/12/12 05:13:16;;;;;;;35.33;20.13;;;5.40;99.90;;;;;;5095878;28;20016;-68
2020/12/12 05:15:42;;;;;;;36.40;16.95;;;5.40;99.90;;;;;;5096059;28;20031;-69
2020/12/12 05:18:08;;;;;;;29.38;15.95;;;5.40;99.90;;;;;;5095815;28;20085;-69
2020/12/12 05:20:35;;;;;;;28.95;15.45;;;5.40;99.90;;;;;;5095626;28;20028;-69
2020/12/12 05:23:01;;;;;;;33.10;15.20;;;5.30;99.90;;;;;;5095687;28;20099;-69
2020/12/12 05:25:27;;;;;;;32.13;18.33;;;5.30;99.90;;;;;;5095541;28;20106;-71
2020/12/12 05:27:54;;;;;;;33.25;16.52;;;5.30;99.90;;;;;;5095845;28;20024;-70
2020/12/12 05:30:21;;;;;;;25.90;15.95;;;5.20;99.90;;;;;;5095680;28;20035;-69
2020/12/12 05:32:48;;;;;;;25.58;14.80;;;5.20;99.90;;;;;;5095736;28;20103;-69
2020/12/12 05:35:14;;;;;;;23.05;13.98;;;5.20;99.90;;;;;;5095486;28;20393;-69
2020/12/12 05:37:40;;;;;;;27.27;13.85;;;5.20;99.90;;;;;;5095020;28;20073;-69
2020/12/12 05:40:06;;;;;;;29.80;15.98;;;5.20;99.90;;;;;;5095469;28;20411;-69
2020/12/12 05:42:35;;;;;;;31.17;15.27;;;5.20;99.90;;;;;;5095598;28;20111;-70
2020/12/12 05:45:05;;;;;;;30.70;15.43;;;5.30;99.90;;;;;;5095470;28;20085;-70
2020/12/12 05:47:32;;;;;;;23.40;13.65;;;5.30;99.90;;;;;;5095346;28;20470;-69
2020/12/12 05:49:57;;;;;;;28.90;14.27;;;5.30;99.90;;;;;;5095589;28;20031;-70
2020/12/12 05:52:23;;;;;;;25.75;14.85;;;5.40;99.90;;;;;;5095172;28;20024;-69
2020/12/12 05:54:49;;;;;;;29.48;17.55;;;5.40;99.90;;;;;;5095275;28;20081;-70
2020/12/12 05:57:16;;;;;;;24.33;13.73;;;5.40;99.90;;;;;;5095485;28;20072;-69
2020/12/12 05:59:43;;;;;;;30.42;16.48;;;5.40;99.90;;;;;;5094849;28;20016;-72
2020/12/12 06:02:14;;;;;;;26.15;15.35;;;5.50;99.90;;;;;;5095122;28;20369;-71
2020/12/12 06:04:49;;;;;;;27.38;15.50;;;5.50;99.90;;;;;;5095264;28;20097;-71
2020/12/12 06:07:26;;;;;;;22.83;15.07;;;5.50;99.90;;;;;;5094761;28;20017;-72
2020/12/12 06:09:58;;;;;;;25.42;14.98;;;5.50;99.90;;;;;;5073285;28;20056;-71
2020/12/12 06:12:24;;;;;;;28.25;16.30;;;5.50;99.90;;;;;;5074198;28;20467;-70
2020/12/12 06:14:57;;;;;;;26.17;15.57;;;5.50;99.90;;;;;;5074785;28;20037;-70
2020/12/12 06:17:59;;;;;;;25.70;15.02;;;5.50;99.90;;;;;;5074394;28;20441;-69
2020/12/12 06:20:28;;;;;;;24.17;13.40;;;5.50;99.90;;;;;;5074132;28;20033;-71
2020/12/12 06:22:54;;;;;;;28.33;15.75;;;5.50;99.90;;;;;;5074714;28;20048;-70
2020/12/12 06:25:23;;;;;;;23.48;13.98;;;5.60;99.90;;;;;;5074432;28;20035;-69
2020/12/12 06:27:53;;;;;;;25.00;14.32;;;5.60;99.90;;;;;;5074261;28;20032;-69
2020/12/12 06:30:21;;;;;;;26.65;15.27;;;5.60;99.90;;;;;;5074611;28;20029;-69
2020/12/12 06:32:47;;;;;;;28.25;14.88;;;5.60;99.90;;;;;;5074340;28;20335;-69
2020/12/12 06:35:16;;;;;;;27.38;15.80;;;5.60;99.90;;;;;;5074012;28;20072;-69
2020/12/12 06:37:42;;;;;;;28.50;16.35;;;5.60;99.90;;;;;;5074174;28;20106;-69
2020/12/12 06:40:15;;;;;;;28.33;18.13;;;5.60;99.90;;;;;;5074024;28;20052;-70
2020/12/12 06:42:45;;;;;;;36.22;19.30;;;5.60;99.90;;;;;;5073948;28;20028;-70
2020/12/12 06:45:13;;;;;;;32.88;19.02;;;5.60;99.90;;;;;;5072947;28;20091;-70
2020/12/12 06:47:44;;;;;;;30.13;17.90;;;5.70;99.90;;;;;;5073930;28;20052;-69
2020/12/12 06:50:13;;;;;;;29.50;17.42;;;5.70;99.90;;;;;;5073304;28;20424;-69
2020/12/12 06:52:41;;;;;;;28.70;15.75;;;5.70;99.90;;;;;;5073664;28;20110;-69
2020/12/12 06:55:13;;;;;;;31.13;17.40;;;5.60;99.90;;;;;;5073674;28;20033;-68
2020/12/12 06:57:41;;;;;;;33.15;17.90;;;5.60;99.90;;;;;;5072498;28;20401;-70
2020/12/12 07:00:17;;;;;;;34.50;19.05;;;5.60;99.90;;;;;;5074002;28;20099;-69
2020/12/12 07:03:01;;;;;;;25.20;15.32;;;5.50;99.90;;;;;;5073829;28;20028;-69
2020/12/12 07:05:34;;;;;;;29.98;16.65;;;5.60;99.90;;;;;;5073779;28;20032;-69
2020/12/12 07:08:02;;;;;;;29.63;17.77;;;5.50;99.90;;;;;;5059265;28;20119;-70
2020/12/12 07:10:29;;;;;;;31.40;18.23;;;5.50;99.90;;;;;;5052600;28;20098;-70
2020/12/12 07:12:55;;;;;;;30.48;15.75;;;5.50;99.90;;;;;;5052230;28;20036;-69
2020/12/12 07:15:20;;;;;;;29.83;15.70;;;5.60;99.90;;;;;;5056432;28;20060;-70
2020/12/12 07:17:47;;;;;;;23.55;14.82;;;5.60;99.90;;;;;;5054040;28;20455;-69
2020/12/12 07:20:13;;;;;;;28.05;14.93;;;5.50;99.90;;;;;;5053966;28;20482;-71
2020/12/12 07:22:38;;;;;;;27.38;16.00;;;5.60;99.90;;;;;;5054542;28;20017;-71
2020/12/12 07:25:05;;;;;;;23.73;14.70;;;5.60;99.90;;;;;;5051464;28;20087;-71
2020/12/12 07:27:32;;;;;;;23.50;14.57;;;5.60;99.90;;;;;;5052980;28;20025;-68
2020/12/12 07:29:57;;;;;;;29.17;16.92;;;5.60;99.90;;;;;;5050464;28;20021;-70
2020/12/12 07:32:26;;;;;;;25.25;16.38;;;5.60;99.90;;;;;;5056474;28;20481;-71
2020/12/12 07:34:57;;;;;;;29.02;16.05;;;5.60;99.90;;;;;;5053958;28;20398;-70
2020/12/12 07:37:24;;;;;;;24.48;13.93;;;5.60;99.90;;;;;;5054935;28;20063;-71
2020/12/12 07:39:49;;;;;;;23.95;12.68;;;5.60;99.90;;;;;;5058208;28;20551;-69
2020/12/12 07:42:15;;;;;;;20.08;13.25;;;5.60;99.90;;;;;;5052238;28;20104;-70
2020/12/12 07:44:56;;;;;;;28.92;15.30;;;5.60;99.90;;;;;;5052370;28;20028;-72
2020/12/12 07:47:22;;;;;;;37.25;19.23;;;5.60;99.90;;;;;;5053375;28;20379;-72
2020/12/12 07:49:48;;;;;;;32.28;17.42;;;5.60;99.90;;;;;;5070888;28;20024;-72
2020/12/12 07:52:14;;;;;;;30.75;17.95;;;5.60;99.90;;;;;;5072987;28;20097;-71
2020/12/12 07:54:52;;;;;;;43.80;23.08;;;5.70;99.90;;;;;;5072892;28;20058;-71
2020/12/12 07:57:17;;;;;;;34.20;19.65;;;5.70;99.90;;;;;;5081006;28;20497;-73
2020/12/12 07:59:43;;;;;;;35.20;18.95;;;5.70;99.90;;;;;;5072515;28;20055;-71
2020/12/12 08:02:11;;;;;;;37.22;20.33;;;5.80;99.90;;;;;;5072537;28;20021;-74
2020/12/12 08:04:37;;;;;;;41.80;23.40;;;5.80;99.90;;;;;;5072603;28;20030;-73
2020/12/12 08:07:11;;;;;;;50.17;27.02;;;5.90;99.90;;;;;;5064706;28;20032;-74
2020/12/12 08:09:37;;;;;;;51.55;27.23;;;6.00;99.90;;;;;;5069726;28;20024;-74
2020/12/12 08:12:04;;;;;;;50.60;25.88;;;6.00;99.90;;;;;;5086123;28;20031;-75
2020/12/12 08:14:42;;;;;;;45.97;24.00;;;6.00;99.90;;;;;;5073619;28;20547;-72
2020/12/12 08:17:10;;;;;;;34.80;20.90;;;6.00;99.90;;;;;;5092553;28;20046;-73
2020/12/12 08:19:45;;;;;;;34.50;21.38;;;6.10;99.90;;;;;;5091389;28;20039;-73
2020/12/12 08:22:20;;;;;;;45.78;24.27;;;6.10;99.90;;;;;;5091904;28;20413;-72
2020/12/12 08:24:46;;;;;;;40.47;23.88;;;6.10;99.90;;;;;;5090311;28;20103;-68
2020/12/12 08:27:15;;;;;;;38.88;23.20;;;6.20;99.90;;;;;;5072558;28;20031;-71
2020/12/12 08:29:49;;;;;;;34.70;20.25;;;6.20;99.90;;;;;;5092405;28;20465;-70
2020/12/12 08:32:40;;;;;;;43.35;22.90;;;6.30;99.90;;;;;;5092519;28;20525;-72
2020/12/12 08:35:14;;;;;;;37.80;20.52;;;6.30;99.90;;;;;;5083312;28;20040;-74
2020/12/12 08:37:49;;;;;;;36.95;20.40;;;6.40;99.90;;;;;;5091555;28;20103;-73
2020/12/12 08:40:15;;;;;;;36.53;20.55;;;6.40;99.90;;;;;;5088985;28;20012;-72
2020/12/12 08:42:41;;;;;;;39.45;22.83;;;6.50;99.90;;;;;;5084593;28;20066;-74
2020/12/12 08:45:15;;;;;;;35.58;22.67;;;6.50;99.90;;;;;;5077540;28;20529;-72
2020/12/12 08:47:40;;;;;;;47.55;25.42;;;6.50;99.90;;;;;;5082429;28;20453;-71
2020/12/12 08:50:06;;;;;;;43.00;25.58;;;6.60;99.90;;;;;;5092243;28;20099;-74
2020/12/12 08:52:32;;;;;;;45.05;23.67;;;6.60;99.90;;;;;;5092164;28;20024;-74
2020/12/12 08:55:04;;;;;;;40.67;24.85;;;6.60;99.90;;;;;;5092332;28;20055;-72
2020/12/12 08:57:31;;;;;;;41.78;21.40;;;6.70;99.90;;;;;;5091370;28;20024;-72
2020/12/12 08:59:58;;;;;;;39.85;24.25;;;6.70;99.90;;;;;;5073975;28;20028;-73
2020/12/12 09:02:24;;;;;;;30.80;20.17;;;6.70;99.90;;;;;;5091239;28;20473;-73
2020/12/12 09:05:09;;;;;;;31.10;17.98;;;6.80;99.90;;;;;;5090968;28;20028;-78
2020/12/12 09:07:36;;;;;;;32.45;19.45;;;6.90;99.90;;;;;;5090489;28;20020;-81
2020/12/12 09:10:12;;;;;;;38.70;20.67;;;7.00;99.90;;;;;;5092583;28;20040;-75
2020/12/12 09:12:51;;;;;;;37.72;21.80;;;;;;;;;;5093785;28;20035;-74
2020/12/12 09:15:17;;;;;;;40.92;23.00;;;;;;;;;;5075991;28;20664;-73
2020/12/12 09:17:59;;;;;;;36.97;19.15;;;7.70;99.90;;;;;;5093044;28;20051;-73
2020/12/12 09:20:25;;;;;;;43.03;21.17;;;8.40;99.90;;;;;;5095489;28;20022;-73
2020/12/12 09:22:50;;;;;;;29.83;15.85;;;8.50;99.90;;;;;;5096085;28;20373;-73
2020/12/12 09:25:16;;;;;;;20.10;11.85;;;8.70;99.90;;;;;;5095581;28;20058;-76
2020/12/12 09:27:42;;;;;;;21.05;12.05;;;8.90;99.90;;;;;;5095967;28;20560;-75
2020/12/12 09:30:07;;;;;;;22.25;11.82;;;9.00;99.90;;;;;;5079674;28;20048;-74
2020/12/12 09:32:33;;;;;;;22.00;8.52;;;9.10;99.90;;;;;;5096055;28;20028;-72
2020/12/12 09:34:59;;;;;;;17.30;8.57;;;8.80;99.90;;;;;;5095981;28;20107;-76
2020/12/12 09:37:25;;;;;;;20.73;10.32;;;8.90;99.90;;;;;;5092228;28;20020;-74
2020/12/12 09:39:50;;;;;;;10.73;6.60;;;8.80;99.90;;;;;;5095179;28;20026;-73
2020/12/12 09:42:16;;;;;;;13.68;7.18;;;8.70;99.90;;;;;;5094639;28;20497;-72
2020/12/12 09:44:42;;;;;;;8.82;5.88;;;8.70;99.90;;;;;;5095173;28;20048;-73
2020/12/12 09:47:08;;;;;;;7.82;5.30;;;8.40;99.90;;;;;;5094448;28;20027;-73
2020/12/12 09:49:34;;;;;;;8.23;5.18;;;8.40;99.90;;;;;;5095129;28;20024;-73
2020/12/12 09:51:59;;;;;;;11.98;6.22;;;8.40;99.90;;;;;;5067709;28;20359;-73
2020/12/12 09:54:25;;;;;;;8.77;5.07;;;8.40;99.90;;;;;;5075937;28;20116;-76
2020/12/12 09:56:51;;;;;;;10.00;5.13;;;8.60;99.90;;;;;;5094975;28;20028;-75
2020/12/12 09:59:17;;;;;;;12.30;6.85;;;8.60;99.90;;;;;;5094484;28;20403;-74
2020/12/12 10:01:44;;;;;;;8.32;4.95;;;8.80;99.90;;;;;;5094457;28;20031;-77
2020/12/12 10:04:10;;;;;;;12.18;4.90;;;8.90;99.90;;;;;;5094528;28;20027;-74
2020/12/12 10:06:36;;;;;;;12.50;7.38;;;8.90;99.90;;;;;;5092882;28;20032;-74
2020/12/12 10:09:01;;;;;;;11.55;6.10;;;8.80;99.90;;;;;;5094246;28;20415;-78
2020/12/12 10:11:27;;;;;;;16.98;7.07;;;8.70;99.90;;;;;;5084386;28;20048;-74
2020/12/12 10:13:53;;;;;;;7.95;4.85;;;8.70;99.90;;;;;;5074080;28;20028;-74
2020/12/12 10:16:21;;;;;;;31.63;14.43;;;8.80;99.90;;;;;;5094476;28;20127;-74
2020/12/12 10:18:47;;;;;;;7.68;5.18;;;8.90;99.90;;;;;;5095225;28;20024;-80
2020/12/12 10:21:13;;;;;;;8.13;4.13;;;9.00;99.90;;;;;;5094002;28;20054;-75
2020/12/12 10:23:39;;;;;;;10.43;6.50;;;8.80;99.90;;;;;;5092839;28;20073;-77
2020/12/12 10:26:04;;;;;;;13.25;6.05;;;8.70;99.90;;;;;;5094365;28;20066;-76
2020/12/12 10:28:30;;;;;;;11.57;6.82;;;8.60;99.90;;;;;;5093787;28;20097;-75
2020/12/12 10:30:56;;;;;;;8.88;5.00;;;8.50;99.90;;;;;;5093867;28;20020;-75
2020/12/12 10:33:22;;;;;;;10.93;7.07;;;8.60;99.90;;;;;;5091034;28;20469;-74
2020/12/12 10:35:48;;;;;;;8.77;5.10;;;8.50;99.90;;;;;;5093817;28;20042;-75
2020/12/12 10:38:14;;;;;;;11.45;7.20;;;8.60;99.90;;;;;;5075991;28;20076;-73
2020/12/12 10:41:00;;;;;;;9.32;6.75;;;8.80;99.90;;;;;;5093863;28;20054;-73
2020/12/12 10:43:26;;;;;;;11.93;6.68;;;8.90;99.90;;;;;;5093482;28;20016;-75
2020/12/12 10:45:52;;;;;;;9.85;5.28;;;8.90;99.90;;;;;;5093864;28;20032;-75
2020/12/12 10:48:18;;;;;;;14.25;6.93;;;9.00;99.90;;;;;;5093704;28;20039;-74
2020/12/12 10:50:44;;;;;;;13.38;5.05;;;9.20;99.90;;;;;;5093643;28;20087;-73
2020/12/12 10:53:09;;;;;;;8.80;5.53;;;9.30;99.90;;;;;;5093635;28;20028;-72
2020/12/12 10:55:35;;;;;;;10.13;5.63;;;9.10;99.90;;;;;;5070382;28;20381;-74
2020/12/12 10:58:01;;;;;;;14.40;8.00;;;9.10;99.90;;;;;;5093327;28;20575;-74
2020/12/12 11:00:28;;;;;;;7.78;4.20;;;9.10;99.90;;;;;;5093508;28;20021;-80
2020/12/12 11:02:54;;;;;;;12.40;5.70;;;9.20;99.90;;;;;;5093556;28;20054;-74
2020/12/12 11:05:20;;;;;;;6.68;3.95;;;;;;;;;;5093647;28;20521;-73
2020/12/12 11:07:46;;;;;;;8.25;4.93;;;9.50;99.90;;;;;;5093907;28;20024;-75
2020/12/12 11:10:12;;;;;;;7.65;4.57;;;9.30;99.90;;;;;;5092720;28;20120;-74
2020/12/12 11:12:38;;;;;;;7.47;4.65;;;9.20;99.90;;;;;;5093388;28;20401;-74
2020/12/12 11:15:07;;;;;;;10.77;5.57;;;9.50;99.90;;;;;;5092671;28;20435;-73
2020/12/12 11:17:33;;;;;;;7.97;4.95;;;;;;;;;;5092219;28;20024;-74
2020/12/12 11:19:59;;;;;;;6.85;3.65;;;9.70;99.90;;;;;;5075027;28;20378;-72
2020/12/12 11:22:25;;;;;;;8.30;4.40;;;9.80;99.90;;;;;;5093014;28;20016;-72
2020/12/12 11:24:51;;;;;;;5.70;3.47;;;9.90;99.90;;;;;;5074062;28;20024;-72
2020/12/12 11:27:17;;;;;;;4.10;3.20;;;9.60;99.90;;;;;;5092568;28;20028;-74
2020/12/12 11:29:42;;;;;;;7.65;4.78;;;9.60;99.90;;;;;;5083957;28;20036;-73
2020/12/12 11:32:09;;;;;;;11.88;5.20;;;9.50;99.90;;;;;;5080051;28;20388;-76
2020/12/12 11:34:42;;;;;;;7.25;4.53;;;9.20;99.90;;;;;;5091718;28;20457;-75
2020/12/12 11:42:27;;;;;;;9.55;4.90;;;8.60;99.90;;;;;;5093266;28;20052;-74
2020/12/12 11:47:25;;;;;;;11.00;5.97;;;8.50;99.90;;;;;;5086771;28;20073;-77
2020/12/12 11:49:52;;;;;;;6.53;3.47;;;8.60;99.90;;;;;;5075107;28;20028;-71
2020/12/12 11:52:18;;;;;;;6.72;4.00;;;8.50;99.90;;;;;;5092173;28;20428;-71
2020/12/12 11:54:44;;;;;;;6.78;4.18;;;8.50;99.90;;;;;;5074455;28;20124;-69
2020/12/12 11:57:10;;;;;;;6.00;3.55;;;8.50;99.90;;;;;;5074971;28;20104;-70
2020/12/12 11:59:36;;;;;;;7.07;3.85;;;8.60;99.90;;;;;;5072138;28;20024;-70
2020/12/12 12:02:04;;;;;;;5.03;3.00;;;8.60;99.90;;;;;;5074810;28;20020;-76
2020/12/12 12:04:30;;;;;;;9.02;5.20;;;9.00;99.90;;;;;;5074093;28;20052;-71
2020/12/12 12:06:57;;;;;;;6.32;3.88;;;9.30;99.90;;;;;;5073006;28;20052;-72
2020/12/12 12:09:47;;;;;;;10.00;6.55;;;9.10;99.90;;;;;;5077476;28;20357;-73
2020/12/12 12:12:13;;;;;;;40.78;19.88;;;9.10;99.90;;;;;;5090923;28;20338;-74
2020/12/12 12:14:39;;;;;;;21.60;9.95;;;9.00;99.90;;;;;;5073723;28;20117;-74
2020/12/12 12:17:04;;;;;;;16.67;8.23;;;8.90;99.90;;;;;;5092001;28;20038;-76
2020/12/12 12:19:30;;;;;;;6.40;3.95;;;8.90;99.90;;;;;;5092392;28;20028;-72
2020/12/12 12:21:56;;;;;;;5.68;2.83;;;9.10;99.90;;;;;;5093350;28;20020;-74
2020/12/12 12:24:22;;;;;;;14.77;7.35;;;9.10;99.90;;;;;;5092425;28;20073;-70
2020/12/12 12:26:49;;;;;;;25.83;11.75;;;9.10;99.90;;;;;;5074187;28;20052;-70
2020/12/12 12:29:17;;;;;;;5.85;3.13;;;9.20;99.90;;;;;;5091463;28;20347;-73
2020/12/12 12:31:45;;;;;;;7.75;4.82;;;9.20;99.90;;;;;;5092340;28;20036;-72
2020/12/12 12:34:11;;;;;;;23.73;12.05;;;9.30;99.90;;;;;;5092061;28;20055;-79
2020/12/12 12:36:38;;;;;;;8.35;3.70;;;9.30;99.90;;;;;;5090321;28;20043;-72
2020/12/12 12:39:06;;;;;;;7.63;4.28;;;9.20;99.90;;;;;;5091871;28;20043;-75
2020/12/12 12:41:32;;;;;;;8.85;4.05;;;9.30;99.90;;;;;;5073404;28;20031;-73
2020/12/12 12:44:01;;;;;;;7.18;3.88;;;9.40;99.90;;;;;;5094575;28;20028;-71
2020/12/12 12:46:39;;;;;;;6.28;3.00;;;9.40;99.90;;;;;;5090575;28;20020;-74
2020/12/12 12:49:06;;;;;;;3.17;2.20;;;9.40;99.90;;;;;;5088986;28;20035;-74